sensor_id;sensor_type;location;lat;lon;timestamp;pressure;altitude;pressure_sealevel;temperature;humidity
29549;BME280;16487;53.094;8.800;2022-10-22T00:01:30;102686.09;;;13.40;100.00
29549;BME280;16487;53.094;8.800;2022-10-22T00:03:57;102696.09;;;13.41;100.00
29549;BME280;16487;53.094;8.800;2022-10-22T00:06:25;102715.72;;;13.41;100.00
29549;BME280;16487;53.094;8.800;2022-10-22T00:08:54;102716.94;;;13.37;100.00
29549;BME280;16487;53.094;8.800;2022-10-22T00:11:21;102727.41;;;13.33;100.00
29549;BME280;16487;53.094;8.800;2022-10-22T00:13:48;102737.00;;;13.28;100.00
29549;BME280;16487;53.094;8.800;2022-10-22T00:16:15;102744.22;;;13.29;100.00
29549;BME280;16487;53.094;8.800;2022-10-22T00:18:43;102748.25;;;13.25;100.00
29549;BME280;16487;53.094;8.800;2022-10-22T00:21:10;102755.88;;;13.24;100.00
29549;BME280;16487;53.094;8.800;2022-10-22T00:23:39;102759.84;;;13.27;100.00
29549;BME280;16487;53.094;8.800;2022-10-22T00:26:08;102772.28;;;13.22;100.00
29549;BME280;16487;53.094;8.800;2022-10-22T00:28:35;102773.84;;;13.27;100.00
29549;BME280;16487;53.094;8.800;2022-10-22T00:31:03;102784.69;;;13.21;100.00
29549;BME280;16487;53.094;8.800;2022-10-22T00:33:31;102782.72;;;13.18;100.00
29549;BME280;16487;53.094;8.800;2022-10-22T00:35:58;102781.19;;;13.10;100.00
29549;BME280;16487;53.094;8.800;2022-10-22T00:38:26;102799.50;;;13.18;100.00
29549;BME280;16487;53.094;8.800;2022-10-22T00:40:53;102807.88;;;13.25;100.00
29549;BME280;16487;53.094;8.800;2022-10-22T00:43:22;102803.50;;;13.21;100.00
29549;BME280;16487;53.094;8.800;2022-10-22T00:45:49;102807.50;;;13.20;100.00
29549;BME280;16487;53.094;8.800;2022-10-22T00:48:20;102825.16;;;13.13;100.00
29549;BME280;16487;53.094;8.800;2022-10-22T00:50:49;102834.34;;;13.17;100.00
29549;BME280;16487;53.094;8.800;2022-10-22T00:53:19;102846.72;;;13.16;100.00
29549;BME280;16487;53.094;8.800;2022-10-22T00:55:51;102851.56;;;13.12;100.00
29549;BME280;16487;53.094;8.800;2022-10-22T00:58:23;102857.94;;;13.16;100.00
29549;BME280;16487;53.094;8.800;2022-10-22T01:00:52;102859.50;;;13.24;100.00
29549;BME280;16487;53.094;8.800;2022-10-22T01:03:20;102863.91;;;13.18;100.00
29549;BME280;16487;53.094;8.800;2022-10-22T01:05:52;102869.13;;;13.16;100.00
29549;BME280;16487;53.094;8.800;2022-10-22T01:08:26;102869.13;;;13.16;100.00
29549;BME280;16487;53.094;8.800;2022-10-22T01:11:05;102871.50;;;13.18;100.00
29549;BME280;16487;53.094;8.800;2022-10-22T01:13:46;102878.34;;;13.13;100.00
29549;BME280;16487;53.094;8.800;2022-10-22T01:16:19;102893.91;;;13.18;100.00
29549;BME280;16487;53.094;8.800;2022-10-22T01:18:53;102907.94;;;13.11;100.00
29549;BME280;16487;53.094;8.800;2022-10-22T01:21:26;102916.75;;;13.09;100.00
29549;BME280;16487;53.094;8.800;2022-10-22T01:24:19;102924.38;;;13.09;100.00
29549;BME280;16487;53.094;8.800;2022-10-22T01:26:59;102923.59;;;13.05;100.00
29549;BME280;16487;53.094;8.800;2022-10-22T01:29:33;102930.78;;;13.06;100.00
29549;BME280;16487;53.094;8.800;2022-10-22T01:32:08;102935.97;;;13.11;100.00
29549;BME280;16487;53.094;8.800;2022-10-22T01:34:38;102943.56;;;13.10;100.00
29549;BME280;16487;53.094;8.800;2022-10-22T01:37:08;102933.22;;;13.04;100.00
29549;BME280;16487;53.094;8.800;2022-10-22T01:39:38;102932.00;;;13.05;99.68
29549;BME280;16487;53.094;8.800;2022-10-22T01:42:06;102940.78;;;13.00;98.97
29549;BME280;16487;53.094;8.800;2022-10-22T01:44:35;102948.38;;;12.99;97.93
29549;BME280;16487;53.094;8.800;2022-10-22T01:47:14;102936.00;;;12.97;96.97
29549;BME280;16487;53.094;8.800;2022-10-22T01:53:06;102944.00;;;12.95;94.98
29549;BME280;16487;53.094;8.800;2022-10-22T01:55:43;102947.59;;;12.95;93.99
29549;BME280;16487;53.094;8.800;2022-10-22T01:58:20;102962.81;;;12.94;93.33
29549;BME280;16487;53.094;8.800;2022-10-22T02:00:58;102976.41;;;12.92;92.80
29549;BME280;16487;53.094;8.800;2022-10-22T02:03:34;102982.41;;;12.87;92.46
29549;BME280;16487;53.094;8.800;2022-10-22T02:06:08;102990.81;;;12.87;91.77
29549;BME280;16487;53.094;8.800;2022-10-22T02:08:38;102992.81;;;12.83;91.46
29549;BME280;16487;53.094;8.800;2022-10-22T02:11:07;103013.59;;;12.89;90.60
29549;BME280;16487;53.094;8.800;2022-10-22T02:13:38;103016.41;;;12.93;89.96
29549;BME280;16487;53.094;8.800;2022-10-22T02:16:09;103010.00;;;12.89;89.64
29549;BME280;16487;53.094;8.800;2022-10-22T02:18:42;103016.81;;;12.91;88.97
29549;BME280;16487;53.094;8.800;2022-10-22T02:21:11;103018.00;;;12.87;88.73
29549;BME280;16487;53.094;8.800;2022-10-22T02:23:38;103024.41;;;12.87;88.27
29549;BME280;16487;53.094;8.800;2022-10-22T02:26:19;103031.63;;;12.92;87.75
29549;BME280;16487;53.094;8.800;2022-10-22T02:28:54;103045.56;;;12.95;87.23
29549;BME280;16487;53.094;8.800;2022-10-22T02:31:27;103056.00;;;12.91;86.95
29549;BME280;16487;53.094;8.800;2022-10-22T02:33:58;103064.41;;;12.88;86.72
29549;BME280;16487;53.094;8.800;2022-10-22T02:36:27;103061.59;;;12.84;86.54
29549;BME280;16487;53.094;8.800;2022-10-22T02:38:55;103076.78;;;12.80;86.53
29549;BME280;16487;53.094;8.800;2022-10-22T02:41:23;103080.38;;;12.80;86.15
29549;BME280;16487;53.094;8.800;2022-10-22T02:43:53;103097.19;;;12.80;85.81
29549;BME280;16487;53.094;8.800;2022-10-22T02:46:21;103104.78;;;12.83;85.44
29549;BME280;16487;53.094;8.800;2022-10-22T02:48:50;103116.38;;;12.85;85.11
29549;BME280;16487;53.094;8.800;2022-10-22T02:51:17;103119.56;;;12.84;84.90
29549;BME280;16487;53.094;8.800;2022-10-22T02:53:45;103125.97;;;12.91;84.40
29549;BME280;16487;53.094;8.800;2022-10-22T02:56:12;103133.97;;;12.96;84.00
29549;BME280;16487;53.094;8.800;2022-10-22T02:58:40;103152.34;;;13.01;83.65
29549;BME280;16487;53.094;8.800;2022-10-22T03:01:07;103165.97;;;13.02;83.40
29549;BME280;16487;53.094;8.800;2022-10-22T03:03:38;103175.97;;;13.03;83.19
29549;BME280;16487;53.094;8.800;2022-10-22T03:06:07;103187.19;;;13.07;82.85
29549;BME280;16487;53.094;8.800;2022-10-22T03:08:35;103191.56;;;13.04;82.77
29549;BME280;16487;53.094;8.800;2022-10-22T03:11:02;103201.59;;;13.05;82.64
29549;BME280;16487;53.094;8.800;2022-10-22T03:13:29;103201.16;;;13.00;82.64
29549;BME280;16487;53.094;8.800;2022-10-22T03:15:57;103210.78;;;13.02;82.45
29549;BME280;16487;53.094;8.800;2022-10-22T03:18:24;103219.53;;;13.01;82.31
29549;BME280;16487;53.094;8.800;2022-10-22T03:21:00;103226.75;;;12.98;82.26
29549;BME280;16487;53.094;8.800;2022-10-22T03:23:29;103228.34;;;12.92;82.26
29549;BME280;16487;53.094;8.800;2022-10-22T03:25:58;103245.13;;;12.92;82.07
29549;BME280;16487;53.094;8.800;2022-10-22T03:28:30;103251.94;;;12.91;81.99
29549;BME280;16487;53.094;8.800;2022-10-22T03:30:57;103256.72;;;12.87;81.96
29549;BME280;16487;53.094;8.800;2022-10-22T03:33:25;103261.91;;;12.85;81.83
29549;BME280;16487;53.094;8.800;2022-10-22T03:35:52;103259.91;;;12.82;81.91
29549;BME280;16487;53.094;8.800;2022-10-22T03:38:19;103263.13;;;12.77;81.89
29549;BME280;16487;53.094;8.800;2022-10-22T03:40:48;103282.72;;;12.84;81.26
29549;BME280;16487;53.094;8.800;2022-10-22T03:43:16;103284.31;;;12.85;81.16
29549;BME280;16487;53.094;8.800;2022-10-22T03:45:43;103294.72;;;12.85;81.09
29549;BME280;16487;53.094;8.800;2022-10-22T03:48:11;103301.94;;;12.96;80.75
29549;BME280;16487;53.094;8.800;2022-10-22T03:50:38;103315.53;;;12.94;80.67
29549;BME280;16487;53.094;8.800;2022-10-22T03:53:05;103316.34;;;12.95;80.62
29549;BME280;16487;53.094;8.800;2022-10-22T03:55:32;103324.31;;;12.93;80.55
29549;BME280;16487;53.094;8.800;2022-10-22T03:58:01;103322.72;;;12.88;80.59
29549;BME280;16487;53.094;8.800;2022-10-22T04:00:28;103325.13;;;12.86;80.56
29549;BME280;16487;53.094;8.800;2022-10-22T04:02:56;103341.91;;;12.90;80.35
29549;BME280;16487;53.094;8.800;2022-10-22T04:05:23;103335.53;;;12.93;80.23
29549;BME280;16487;53.094;8.800;2022-10-22T04:07:50;103350.72;;;12.88;80.27
29549;BME280;16487;53.094;8.800;2022-10-22T04:10:18;103351.50;;;12.89;80.16
29549;BME280;16487;53.094;8.800;2022-10-22T04:12:46;103367.53;;;12.92;80.05
29549;BME280;16487;53.094;8.800;2022-10-22T04:15:15;103366.31;;;12.89;80.04
29549;BME280;16487;53.094;8.800;2022-10-22T04:17:42;103369.91;;;12.86;80.00
29549;BME280;16487;53.094;8.800;2022-10-22T04:20:10;103387.50;;;12.90;79.85
29549;BME280;16487;53.094;8.800;2022-10-22T04:22:37;103390.66;;;12.82;80.00
29549;BME280;16487;53.094;8.800;2022-10-22T04:25:05;103394.66;;;12.77;80.05
29549;BME280;16487;53.094;8.800;2022-10-22T04:27:32;103401.81;;;12.71;80.11
29549;BME280;16487;53.094;8.800;2022-10-22T04:30:00;103405.00;;;12.69;80.10
29549;BME280;16487;53.094;8.800;2022-10-22T04:32:29;103413.00;;;12.71;79.94
29549;BME280;16487;53.094;8.800;2022-10-22T04:34:56;103408.19;;;12.64;80.06
29549;BME280;16487;53.094;8.800;2022-10-22T04:37:23;103409.41;;;12.67;79.97
29549;BME280;16487;53.094;8.800;2022-10-22T04:39:51;103409.81;;;12.69;79.93
29549;BME280;16487;53.094;8.800;2022-10-22T04:42:18;103419.38;;;12.64;79.93
29549;BME280;16487;53.094;8.800;2022-10-22T04:44:45;103409.81;;;12.65;79.87
29549;BME280;16487;53.094;8.800;2022-10-22T04:47:12;103418.22;;;12.69;79.72
29549;BME280;16487;53.094;8.800;2022-10-22T04:49:41;103419.41;;;12.68;79.64
29549;BME280;16487;53.094;8.800;2022-10-22T04:52:08;103419.34;;;12.61;79.61
29549;BME280;16487;53.094;8.800;2022-10-22T04:54:35;103422.16;;;12.61;79.49
29549;BME280;16487;53.094;8.800;2022-10-22T04:57:03;103425.34;;;12.59;79.50
29549;BME280;16487;53.094;8.800;2022-10-22T04:59:30;103425.31;;;12.52;79.58
29549;BME280;16487;53.094;8.800;2022-10-22T05:01:57;103427.31;;;12.55;79.46
29549;BME280;16487;53.094;8.800;2022-10-22T05:04:25;103424.88;;;12.47;79.62
29549;BME280;16487;53.094;8.800;2022-10-22T05:06:53;103429.69;;;12.46;79.57
29549;BME280;16487;53.094;8.800;2022-10-22T05:09:20;103435.66;;;12.45;79.55
29549;BME280;16487;53.094;8.800;2022-10-22T05:11:51;103427.25;;;12.45;79.51
29549;BME280;16487;53.094;8.800;2022-10-22T05:14:20;103429.72;;;12.50;79.32
29549;BME280;16487;53.094;8.800;2022-10-22T05:16:49;103426.88;;;12.43;79.45
29549;BME280;16487;53.094;8.800;2022-10-22T05:19:18;103435.25;;;12.43;79.39
29549;BME280;16487;53.094;8.800;2022-10-22T05:21:46;103429.66;;;12.43;79.32
29549;BME280;16487;53.094;8.800;2022-10-22T05:24:14;103436.44;;;12.42;79.27
29549;BME280;16487;53.094;8.800;2022-10-22T05:26:42;103447.25;;;12.47;79.07
29549;BME280;16487;53.094;8.800;2022-10-22T05:29:09;103464.88;;;12.51;78.94
29549;BME280;16487;53.094;8.800;2022-10-22T05:31:36;103466.44;;;12.48;78.91
29549;BME280;16487;53.094;8.800;2022-10-22T05:34:04;103476.06;;;12.51;78.84
29549;BME280;16487;53.094;8.800;2022-10-22T05:36:31;103478.88;;;12.54;78.63
29549;BME280;16487;53.094;8.800;2022-10-22T05:38:58;103481.66;;;12.51;78.65
29549;BME280;16487;53.094;8.800;2022-10-22T05:41:27;103485.28;;;12.51;78.61
29549;BME280;16487;53.094;8.800;2022-10-22T05:43:55;103488.84;;;12.52;78.52
29549;BME280;16487;53.094;8.800;2022-10-22T05:46:25;103494.44;;;12.52;78.49
29549;BME280;16487;53.094;8.800;2022-10-22T05:48:54;103507.31;;;12.60;78.29
29549;BME280;16487;53.094;8.800;2022-10-22T05:51:22;103516.09;;;12.58;78.26
29549;BME280;16487;53.094;8.800;2022-10-22T05:53:51;103525.75;;;12.68;78.00
29549;BME280;16487;53.094;8.800;2022-10-22T05:56:19;103520.13;;;12.64;78.03
29549;BME280;16487;53.094;8.800;2022-10-22T05:58:48;103534.56;;;12.70;77.90
29549;BME280;16487;53.094;8.800;2022-10-22T06:01:17;103534.94;;;12.68;77.93
29549;BME280;16487;53.094;8.800;2022-10-22T06:03:45;103533.66;;;12.59;78.10
29549;BME280;16487;53.094;8.800;2022-10-22T06:06:17;103546.91;;;12.62;77.99
29549;BME280;16487;53.094;8.800;2022-10-22T06:08:46;103543.28;;;12.58;78.11
29549;BME280;16487;53.094;8.800;2022-10-22T06:11:14;103550.47;;;12.59;78.05
29549;BME280;16487;53.094;8.800;2022-10-22T06:13:41;103559.28;;;12.64;77.92
29549;BME280;16487;53.094;8.800;2022-10-22T06:16:10;103570.09;;;12.66;77.86
29549;BME280;16487;53.094;8.800;2022-10-22T06:18:37;103569.28;;;12.62;77.93
29549;BME280;16487;53.094;8.800;2022-10-22T06:21:05;103575.66;;;12.62;77.90
29549;BME280;16487;53.094;8.800;2022-10-22T06:23:32;103580.88;;;12.64;77.87
29549;BME280;16487;53.094;8.800;2022-10-22T06:26:00;103581.63;;;12.57;78.01
29549;BME280;16487;53.094;8.800;2022-10-22T06:28:27;103582.38;;;12.51;78.10
29549;BME280;16487;53.094;8.800;2022-10-22T06:30:56;103593.19;;;12.52;78.07
29549;BME280;16487;53.094;8.800;2022-10-22T06:33:25;103596.78;;;12.53;78.05
29549;BME280;16487;53.094;8.800;2022-10-22T06:35:52;103607.63;;;12.58;77.96
29549;BME280;16487;53.094;8.800;2022-10-22T06:38:20;103603.22;;;12.57;77.94
29549;BME280;16487;53.094;8.800;2022-10-22T06:40:47;103608.78;;;12.53;78.00
29549;BME280;16487;53.094;8.800;2022-10-22T06:43:15;103629.66;;;12.63;77.82
29549;BME280;16487;53.094;8.800;2022-10-22T06:45:42;103629.25;;;12.64;77.79
29549;BME280;16487;53.094;8.800;2022-10-22T06:48:09;103652.09;;;12.70;77.67
29549;BME280;16487;53.094;8.800;2022-10-22T06:50:38;103661.69;;;12.69;77.71
29549;BME280;16487;53.094;8.800;2022-10-22T06:53:05;103668.88;;;12.70;77.71
29549;BME280;16487;53.094;8.800;2022-10-22T06:55:34;103669.72;;;12.74;77.62
29549;BME280;16487;53.094;8.800;2022-10-22T06:58:01;103684.50;;;12.75;77.63
29549;BME280;16487;53.094;8.800;2022-10-22T07:00:28;103697.78;;;12.81;77.60
29549;BME280;16487;53.094;8.800;2022-10-22T07:02:56;103703.78;;;12.83;77.54
29549;BME280;16487;53.094;8.800;2022-10-22T07:05:26;103717.84;;;12.90;77.47
29549;BME280;16487;53.094;8.800;2022-10-22T07:07:54;103730.31;;;12.96;77.43
29549;BME280;16487;53.094;8.800;2022-10-22T07:10:21;103754.84;;;13.10;77.20
29549;BME280;16487;53.094;8.800;2022-10-22T07:12:54;103763.28;;;13.13;77.24
29549;BME280;16487;53.094;8.800;2022-10-22T07:15:21;103776.53;;;13.20;77.25
29549;BME280;16487;53.094;8.800;2022-10-22T07:17:49;103778.19;;;13.24;77.31
29549;BME280;16487;53.094;8.800;2022-10-22T07:20:16;103784.22;;;13.26;77.45
29549;BME280;16487;53.094;8.800;2022-10-22T07:22:43;103789.03;;;13.29;77.57
29549;BME280;16487;53.094;8.800;2022-10-22T07:25:12;103787.84;;;13.34;77.75
29549;BME280;16487;53.094;8.800;2022-10-22T07:27:39;103787.09;;;13.40;77.82
29549;BME280;16487;53.094;8.800;2022-10-22T07:30:08;103795.13;;;13.45;78.05
29549;BME280;16487;53.094;8.800;2022-10-22T07:32:35;103783.97;;;13.52;78.28
29549;BME280;16487;53.094;8.800;2022-10-22T07:35:03;103768.06;;;13.63;78.44
29549;BME280;16487;53.094;8.800;2022-10-22T07:37:30;103739.63;;;13.65;78.94
29549;BME280;16487;53.094;8.800;2022-10-22T07:39:58;103730.44;;;13.71;79.34
29549;BME280;16487;53.094;8.800;2022-10-22T07:42:31;103695.28;;;13.81;79.83
29549;BME280;16487;53.094;8.800;2022-10-22T07:44:58;103648.78;;;13.83;80.57
29549;BME280;16487;53.094;8.800;2022-10-22T07:47:26;103603.97;;;13.91;81.31
29549;BME280;16487;53.094;8.800;2022-10-22T07:49:53;103535.91;;;14.01;82.25
29549;BME280;16487;53.094;8.800;2022-10-22T07:52:20;103461.34;;;14.00;83.56
29549;BME280;16487;53.094;8.800;2022-10-22T07:54:47;103388.03;;;14.15;84.69
29549;BME280;16487;53.094;8.800;2022-10-22T07:57:14;103305.09;;;14.11;86.72
29549;BME280;16487;53.094;8.800;2022-10-22T07:59:44;103201.72;;;14.09;89.24
29549;BME280;16487;53.094;8.800;2022-10-22T08:02:12;103103.09;;;14.21;91.49
29549;BME280;16487;53.094;8.800;2022-10-22T08:04:39;103005.38;;;14.13;95.58
29549;BME280;16487;53.094;8.800;2022-10-22T08:07:06;102911.56;;;14.17;99.87
29549;BME280;16487;53.094;8.800;2022-10-22T08:09:33;102816.25;;;14.14;100.00
29549;BME280;16487;53.094;8.800;2022-10-22T08:12:01;102738.53;;;14.14;100.00
29549;BME280;16487;53.094;8.800;2022-10-22T08:14:28;102673.59;;;14.16;100.00
29549;BME280;16487;53.094;8.800;2022-10-22T08:16:57;102626.69;;;14.20;100.00
29549;BME280;16487;53.094;8.800;2022-10-22T08:19:24;102614.97;;;14.28;100.00
29549;BME280;16487;53.094;8.800;2022-10-22T08:21:52;102568.50;;;14.24;100.00
29549;BME280;16487;53.094;8.800;2022-10-22T08:24:19;102549.91;;;14.37;100.00
29549;BME280;16487;53.094;8.800;2022-10-22T08:26:46;102538.44;;;14.51;100.00
29549;BME280;16487;53.094;8.800;2022-10-22T08:29:14;102519.47;;;14.58;100.00
29549;BME280;16487;53.094;8.800;2022-10-22T08:31:41;102505.50;;;14.55;100.00
29549;BME280;16487;53.094;8.800;2022-10-22T08:34:12;102475.72;;;14.61;100.00
29549;BME280;16487;53.094;8.800;2022-10-22T08:36:39;102459.47;;;14.72;100.00
29549;BME280;16487;53.094;8.800;2022-10-22T08:39:06;102451.44;;;14.93;100.00
29549;BME280;16487;53.094;8.800;2022-10-22T08:41:37;102441.31;;;14.96;100.00
29549;BME280;16487;53.094;8.800;2022-10-22T08:44:23;102424.78;;;15.02;100.00
29549;BME280;16487;53.094;8.800;2022-10-22T08:47:09;102394.53;;;15.09;100.00
29549;BME280;16487;53.094;8.800;2022-10-22T08:49:49;102375.94;;;15.15;100.00
29549;BME280;16487;53.094;8.800;2022-10-22T08:52:17;102369.53;;;15.50;100.00
29549;BME280;16487;53.094;8.800;2022-10-22T08:54:50;102336.34;;;15.61;100.00
29549;BME280;16487;53.094;8.800;2022-10-22T08:57:41;102307.78;;;15.63;100.00
29549;BME280;16487;53.094;8.800;2022-10-22T09:00:20;102271.16;;;15.66;100.00
29549;BME280;16487;53.094;8.800;2022-10-22T09:03:01;102227.03;;;15.79;100.00
29549;BME280;16487;53.094;8.800;2022-10-22T09:05:41;102189.41;;;15.89;100.00
29549;BME280;16487;53.094;8.800;2022-10-22T09:08:14;102150.03;;;16.02;100.00
29549;BME280;16487;53.094;8.800;2022-10-22T09:10:45;102105.97;;;16.12;100.00
29549;BME280;16487;53.094;8.800;2022-10-22T09:13:17;102057.81;;;16.10;100.00
29549;BME280;16487;53.094;8.800;2022-10-22T09:15:47;102016.38;;;16.23;100.00
29549;BME280;16487;53.094;8.800;2022-10-22T09:18:26;101992.53;;;16.27;100.00
29549;BME280;16487;53.094;8.800;2022-10-22T09:21:05;101957.97;;;16.27;100.00
29549;BME280;16487;53.094;8.800;2022-10-22T09:23:48;101942.81;;;16.24;100.00
29549;BME280;16487;53.094;8.800;2022-10-22T09:26:18;101933.69;;;16.20;100.00
29549;BME280;16487;53.094;8.800;2022-10-22T09:28:48;101921.19;;;16.21;100.00
29549;BME280;16487;53.094;8.800;2022-10-22T09:31:16;101916.22;;;16.38;100.00
29549;BME280;16487;53.094;8.800;2022-10-22T09:33:45;101907.72;;;16.50;100.00
29549;BME280;16487;53.094;8.800;2022-10-22T09:36:16;101898.06;;;16.73;100.00
29549;BME280;16487;53.094;8.800;2022-10-22T09:38:46;101882.97;;;16.79;100.00
29549;BME280;16487;53.094;8.800;2022-10-22T09:41:15;101869.16;;;16.72;100.00
29549;BME280;16487;53.094;8.800;2022-10-22T09:43:45;101851.06;;;16.82;100.00
29549;BME280;16487;53.094;8.800;2022-10-22T09:46:15;101829.69;;;16.94;100.00
29549;BME280;16487;53.094;8.800;2022-10-22T09:48:46;101833.84;;;17.11;100.00
29549;BME280;16487;53.094;8.800;2022-10-22T09:51:18;101813.72;;;17.22;100.00
29549;BME280;16487;53.094;8.800;2022-10-22T09:53:47;101796.00;;;17.52;100.00
29549;BME280;16487;53.094;8.800;2022-10-22T09:56:25;101781.63;;;17.77;100.00
29549;BME280;16487;53.094;8.800;2022-10-22T09:58:55;101746.09;;;17.88;100.00
29549;BME280;16487;53.094;8.800;2022-10-22T10:01:24;101709.72;;;18.26;100.00
29549;BME280;16487;53.094;8.800;2022-10-22T10:03:52;101646.94;;;19.15;100.00
29549;BME280;16487;53.094;8.800;2022-10-22T10:06:22;101568.38;;;19.57;100.00
29549;BME280;16487;53.094;8.800;2022-10-22T10:08:49;101505.31;;;19.80;100.00
29549;BME280;16487;53.094;8.800;2022-10-22T10:11:24;101458.09;;;19.57;100.00
29549;BME280;16487;53.094;8.800;2022-10-22T10:14:04;101432.00;;;20.31;100.00
29549;BME280;16487;53.094;8.800;2022-10-22T10:16:42;101410.59;;;19.61;100.00
29549;BME280;16487;53.094;8.800;2022-10-22T10:19:21;101402.88;;;19.76;100.00
29549;BME280;16487;53.094;8.800;2022-10-22T10:22:01;101396.84;;;19.69;100.00
29549;BME280;16487;53.094;8.800;2022-10-22T10:24:41;101419.69;;;19.65;100.00
29549;BME280;16487;53.094;8.800;2022-10-22T10:27:17;101426.94;;;19.13;100.00
29549;BME280;16487;53.094;8.800;2022-10-22T10:29:54;101450.53;;;18.96;100.00
29549;BME280;16487;53.094;8.800;2022-10-22T10:32:38;101454.88;;;19.35;100.00
29549;BME280;16487;53.094;8.800;2022-10-22T10:35:21;101453.16;;;19.38;100.00
29549;BME280;16487;53.094;8.800;2022-10-22T10:37:59;101451.91;;;19.15;100.00
29549;BME280;16487;53.094;8.800;2022-10-22T10:40:39;101444.50;;;19.17;100.00
29549;BME280;16487;53.094;8.800;2022-10-22T10:43:11;101432.53;;;19.52;100.00
29549;BME280;16487;53.094;8.800;2022-10-22T10:45:47;101413.38;;;19.90;100.00
29549;BME280;16487;53.094;8.800;2022-10-22T10:48:41;101412.06;;;20.20;100.00
29549;BME280;16487;53.094;8.800;2022-10-22T10:51:20;101394.66;;;19.78;100.00
29549;BME280;16487;53.094;8.800;2022-10-22T10:54:02;101390.13;;;19.66;100.00
29549;BME280;16487;53.094;8.800;2022-10-22T10:56:36;101391.84;;;19.78;100.00
29549;BME280;16487;53.094;8.800;2022-10-22T10:59:16;101383.44;;;20.38;100.00
29549;BME280;16487;53.094;8.800;2022-10-22T11:01:55;101359.38;;;20.48;100.00
29549;BME280;16487;53.094;8.800;2022-10-22T11:04:44;101368.84;;;20.66;100.00
29549;BME280;16487;53.094;8.800;2022-10-22T11:07:19;101349.19;;;20.57;100.00
29549;BME280;16487;53.094;8.800;2022-10-22T11:10:09;101360.91;;;20.09;100.00
29549;BME280;16487;53.094;8.800;2022-10-22T11:12:41;101389.81;;;19.64;100.00
29549;BME280;16487;53.094;8.800;2022-10-22T11:15:16;101400.56;;;19.31;100.00
29549;BME280;16487;53.094;8.800;2022-10-22T11:17:48;101413.97;;;19.94;100.00
29549;BME280;16487;53.094;8.800;2022-10-22T11:20:18;101365.13;;;21.00;100.00
29549;BME280;16487;53.094;8.800;2022-10-22T11:22:47;101339.13;;;20.35;100.00
29549;BME280;16487;53.094;8.800;2022-10-22T11:25:42;101326.00;;;19.78;100.00
29549;BME280;16487;53.094;8.800;2022-10-22T11:28:13;101330.81;;;20.52;100.00
29549;BME280;16487;53.094;8.800;2022-10-22T11:30:42;101340.72;;;19.82;100.00
29549;BME280;16487;53.094;8.800;2022-10-22T11:33:16;101355.75;;;19.73;100.00
29549;BME280;16487;53.094;8.800;2022-10-22T11:35:46;101364.41;;;19.35;100.00
29549;BME280;16487;53.094;8.800;2022-10-22T11:38:16;101382.88;;;18.78;100.00
29549;BME280;16487;53.094;8.800;2022-10-22T11:40:47;101396.94;;;19.16;100.00
29549;BME280;16487;53.094;8.800;2022-10-22T11:43:26;101400.88;;;19.18;100.00
29549;BME280;16487;53.094;8.800;2022-10-22T11:46:00;101401.00;;;18.86;100.00
29549;BME280;16487;53.094;8.800;2022-10-22T11:48:35;101420.75;;;18.71;100.00
29549;BME280;16487;53.094;8.800;2022-10-22T11:51:28;101434.34;;;18.58;100.00
29549;BME280;16487;53.094;8.800;2022-10-22T11:53:56;101436.31;;;18.67;100.00
29549;BME280;16487;53.094;8.800;2022-10-22T11:56:28;101429.19;;;18.95;100.00
29549;BME280;16487;53.094;8.800;2022-10-22T11:59:02;101407.28;;;19.77;100.00
29549;BME280;16487;53.094;8.800;2022-10-22T12:01:41;101377.09;;;20.09;100.00
29549;BME280;16487;53.094;8.800;2022-10-22T12:04:18;101363.38;;;19.67;100.00
29549;BME280;16487;53.094;8.800;2022-10-22T12:06:53;101374.34;;;19.16;100.00
29549;BME280;16487;53.094;8.800;2022-10-22T12:09:22;101401.06;;;19.15;100.00
29549;BME280;16487;53.094;8.800;2022-10-22T12:11:51;101398.34;;;19.35;100.00
29549;BME280;16487;53.094;8.800;2022-10-22T12:14:20;101387.31;;;19.86;100.00
29549;BME280;16487;53.094;8.800;2022-10-22T12:16:51;101375.81;;;20.44;100.00
29549;BME280;16487;53.094;8.800;2022-10-22T12:19:26;101351.31;;;20.21;100.00
29549;BME280;16487;53.094;8.800;2022-10-22T12:21:57;101346.16;;;19.85;100.00
29549;BME280;16487;53.094;8.800;2022-10-22T12:24:29;101349.09;;;19.56;100.00
29549;BME280;16487;53.094;8.800;2022-10-22T12:26:58;101353.84;;;19.50;100.00
29549;BME280;16487;53.094;8.800;2022-10-22T12:29:26;101360.59;;;19.09;100.00
29549;BME280;16487;53.094;8.800;2022-10-22T12:31:53;101385.16;;;19.03;100.00
29549;BME280;16487;53.094;8.800;2022-10-22T12:34:22;101393.81;;;18.85;100.00
29549;BME280;16487;53.094;8.800;2022-10-22T12:36:52;101395.19;;;19.04;100.00
29549;BME280;16487;53.094;8.800;2022-10-22T12:39:22;101391.09;;;18.90;100.00
29549;BME280;16487;53.094;8.800;2022-10-22T12:41:51;101391.63;;;19.82;100.00
29549;BME280;16487;53.094;8.800;2022-10-22T12:44:20;101359.78;;;20.41;100.00
29549;BME280;16487;53.094;8.800;2022-10-22T12:46:49;101340.88;;;19.93;100.00
29549;BME280;16487;53.094;8.800;2022-10-22T12:49:27;101344.34;;;19.33;100.00
29549;BME280;16487;53.094;8.800;2022-10-22T12:52:00;101371.41;;;18.96;100.00
29549;BME280;16487;53.094;8.800;2022-10-22T12:54:30;101382.34;;;19.03;100.00
29549;BME280;16487;53.094;8.800;2022-10-22T12:57:00;101358.78;;;19.84;100.00
29549;BME280;16487;53.094;8.800;2022-10-22T12:59:32;101348.25;;;19.35;100.00
29549;BME280;16487;53.094;8.800;2022-10-22T13:02:01;101344.31;;;19.04;100.00
29549;BME280;16487;53.094;8.800;2022-10-22T13:04:36;101356.28;;;18.84;100.00
29549;BME280;16487;53.094;8.800;2022-10-22T13:07:14;101372.44;;;18.69;100.00